sensor_id;sensor_type;location;lat;lon;timestamp;temperature;humidity
74336;DHT22;62755;-33.398;-70.572;2022-11-20T00:01:20;24.40;35.20
74336;DHT22;62755;-33.398;-70.572;2022-11-20T00:03:51;24.40;35.10
74336;DHT22;62755;-33.398;-70.572;2022-11-20T00:06:22;24.50;35.00
74336;DHT22;62755;-33.398;-70.572;2022-11-20T00:08:53;24.50;34.70
74336;DHT22;62755;-33.398;-70.572;2022-11-20T00:11:24;24.40;34.80
74336;DHT22;62755;-33.398;-70.572;2022-11-20T00:13:57;24.40;34.70
74336;DHT22;62755;-33.398;-70.572;2022-11-20T00:16:27;24.40;34.80
74336;DHT22;62755;-33.398;-70.572;2022-11-20T00:18:57;24.30;34.80
74336;DHT22;62755;-33.398;-70.572;2022-11-20T00:21:29;24.20;35.00
74336;DHT22;62755;-33.398;-70.572;2022-11-20T00:23:58;24.20;34.70
74336;DHT22;62755;-33.398;-70.572;2022-11-20T00:26:28;24.10;35.10
74336;DHT22;62755;-33.398;-70.572;2022-11-20T00:29:01;24.00;35.10
74336;DHT22;62755;-33.398;-70.572;2022-11-20T00:31:31;24.00;35.00
74336;DHT22;62755;-33.398;-70.572;2022-11-20T00:34:01;24.00;35.00
74336;DHT22;62755;-33.398;-70.572;2022-11-20T00:36:33;24.00;35.00
74336;DHT22;62755;-33.398;-70.572;2022-11-20T00:39:03;23.90;35.20
74336;DHT22;62755;-33.398;-70.572;2022-11-20T00:41:33;23.90;35.40
74336;DHT22;62755;-33.398;-70.572;2022-11-20T00:44:04;23.90;35.30
74336;DHT22;62755;-33.398;-70.572;2022-11-20T00:46:34;23.80;35.40
74336;DHT22;62755;-33.398;-70.572;2022-11-20T00:49:03;23.90;35.40
74336;DHT22;62755;-33.398;-70.572;2022-11-20T00:51:33;24.00;35.30
74336;DHT22;62755;-33.398;-70.572;2022-11-20T00:54:03;24.00;35.30
74336;DHT22;62755;-33.398;-70.572;2022-11-20T00:56:32;24.00;35.30
74336;DHT22;62755;-33.398;-70.572;2022-11-20T00:59:03;23.90;35.40
74336;DHT22;62755;-33.398;-70.572;2022-11-20T01:01:33;23.90;35.50
74336;DHT22;62755;-33.398;-70.572;2022-11-20T01:04:03;24.00;35.50
74336;DHT22;62755;-33.398;-70.572;2022-11-20T01:06:34;24.00;35.50
74336;DHT22;62755;-33.398;-70.572;2022-11-20T01:09:05;24.00;35.30
74336;DHT22;62755;-33.398;-70.572;2022-11-20T01:11:37;24.10;35.40
74336;DHT22;62755;-33.398;-70.572;2022-11-20T01:14:11;24.10;35.30
74336;DHT22;62755;-33.398;-70.572;2022-11-20T01:16:42;24.00;35.40
74336;DHT22;62755;-33.398;-70.572;2022-11-20T01:19:14;24.00;35.40
74336;DHT22;62755;-33.398;-70.572;2022-11-20T01:21:47;24.00;35.40
74336;DHT22;62755;-33.398;-70.572;2022-11-20T01:24:19;24.00;35.40
74336;DHT22;62755;-33.398;-70.572;2022-11-20T01:26:50;24.00;35.50
74336;DHT22;62755;-33.398;-70.572;2022-11-20T01:29:23;24.00;35.50
74336;DHT22;62755;-33.398;-70.572;2022-11-20T01:31:53;24.00;35.60
74336;DHT22;62755;-33.398;-70.572;2022-11-20T01:34:22;24.00;35.30
74336;DHT22;62755;-33.398;-70.572;2022-11-20T01:36:53;23.90;35.50
74336;DHT22;62755;-33.398;-70.572;2022-11-20T01:39:24;23.90;35.50
74336;DHT22;62755;-33.398;-70.572;2022-11-20T01:41:54;23.90;35.50
74336;DHT22;62755;-33.398;-70.572;2022-11-20T01:44:51;24.00;35.40
74336;DHT22;62755;-33.398;-70.572;2022-11-20T01:47:29;24.00;35.00
74336;DHT22;62755;-33.398;-70.572;2022-11-20T01:50:04;23.90;35.30
74336;DHT22;62755;-33.398;-70.572;2022-11-20T01:52:37;23.90;35.20
74336;DHT22;62755;-33.398;-70.572;2022-11-20T01:55:10;23.70;35.20
74336;DHT22;62755;-33.398;-70.572;2022-11-20T01:57:42;23.60;35.60
74336;DHT22;62755;-33.398;-70.572;2022-11-20T02:00:17;23.60;35.50
74336;DHT22;62755;-33.398;-70.572;2022-11-20T02:02:50;23.60;35.50
74336;DHT22;62755;-33.398;-70.572;2022-11-20T02:05:24;23.60;35.40
74336;DHT22;62755;-33.398;-70.572;2022-11-20T02:07:55;23.60;35.40
74336;DHT22;62755;-33.398;-70.572;2022-11-20T02:10:26;23.70;35.30
74336;DHT22;62755;-33.398;-70.572;2022-11-20T02:12:56;23.60;35.40
74336;DHT22;62755;-33.398;-70.572;2022-11-20T02:15:43;23.70;35.30
74336;DHT22;62755;-33.398;-70.572;2022-11-20T02:18:14;23.60;35.40
74336;DHT22;62755;-33.398;-70.572;2022-11-20T02:20:47;23.60;35.40
74336;DHT22;62755;-33.398;-70.572;2022-11-20T02:23:21;23.60;35.40
74336;DHT22;62755;-33.398;-70.572;2022-11-20T02:25:55;23.60;35.50
74336;DHT22;62755;-33.398;-70.572;2022-11-20T02:28:25;23.60;35.60
74336;DHT22;62755;-33.398;-70.572;2022-11-20T02:30:54;23.60;35.60
74336;DHT22;62755;-33.398;-70.572;2022-11-20T02:33:24;23.60;35.70
74336;DHT22;62755;-33.398;-70.572;2022-11-20T02:35:53;23.60;35.70
74336;DHT22;62755;-33.398;-70.572;2022-11-20T02:38:23;23.60;35.80
74336;DHT22;62755;-33.398;-70.572;2022-11-20T02:40:55;23.60;35.80
74336;DHT22;62755;-33.398;-70.572;2022-11-20T02:43:24;23.60;35.90
74336;DHT22;62755;-33.398;-70.572;2022-11-20T02:45:54;23.80;35.80
74336;DHT22;62755;-33.398;-70.572;2022-11-20T02:48:23;23.80;35.80
74336;DHT22;62755;-33.398;-70.572;2022-11-20T02:50:53;23.80;35.80
74336;DHT22;62755;-33.398;-70.572;2022-11-20T02:53:22;23.60;35.90
74336;DHT22;62755;-33.398;-70.572;2022-11-20T02:55:53;23.50;35.90
74336;DHT22;62755;-33.398;-70.572;2022-11-20T02:58:23;23.30;36.40
74336;DHT22;62755;-33.398;-70.572;2022-11-20T03:00:53;23.20;36.70
74336;DHT22;62755;-33.398;-70.572;2022-11-20T03:03:23;23.00;37.00
74336;DHT22;62755;-33.398;-70.572;2022-11-20T03:05:53;22.90;37.20
74336;DHT22;62755;-33.398;-70.572;2022-11-20T03:08:23;22.90;37.30
74336;DHT22;62755;-33.398;-70.572;2022-11-20T03:10:54;22.90;37.50
74336;DHT22;62755;-33.398;-70.572;2022-11-20T03:13:25;23.00;37.40
74336;DHT22;62755;-33.398;-70.572;2022-11-20T03:15:55;23.00;37.50
74336;DHT22;62755;-33.398;-70.572;2022-11-20T03:18:27;23.00;37.50
74336;DHT22;62755;-33.398;-70.572;2022-11-20T03:20:58;22.90;37.50
74336;DHT22;62755;-33.398;-70.572;2022-11-20T03:23:30;22.90;37.50
74336;DHT22;62755;-33.398;-70.572;2022-11-20T03:26:14;22.90;37.60
74336;DHT22;62755;-33.398;-70.572;2022-11-20T03:28:49;22.90;37.80
74336;DHT22;62755;-33.398;-70.572;2022-11-20T03:31:20;22.80;37.80
74336;DHT22;62755;-33.398;-70.572;2022-11-20T03:33:50;22.80;37.90
74336;DHT22;62755;-33.398;-70.572;2022-11-20T03:36:20;22.80;37.80
74336;DHT22;62755;-33.398;-70.572;2022-11-20T03:38:50;22.80;37.80
74336;DHT22;62755;-33.398;-70.572;2022-11-20T03:41:23;22.80;37.80
74336;DHT22;62755;-33.398;-70.572;2022-11-20T03:43:54;22.80;37.90
74336;DHT22;62755;-33.398;-70.572;2022-11-20T03:46:24;22.80;37.90
74336;DHT22;62755;-33.398;-70.572;2022-11-20T03:48:54;22.70;38.00
74336;DHT22;62755;-33.398;-70.572;2022-11-20T03:51:25;22.70;38.00
74336;DHT22;62755;-33.398;-70.572;2022-11-20T03:53:56;22.70;38.00
74336;DHT22;62755;-33.398;-70.572;2022-11-20T03:56:29;22.70;38.10
74336;DHT22;62755;-33.398;-70.572;2022-11-20T03:58:59;22.60;38.20
74336;DHT22;62755;-33.398;-70.572;2022-11-20T04:01:31;22.60;38.10
74336;DHT22;62755;-33.398;-70.572;2022-11-20T04:04:01;22.60;38.20
74336;DHT22;62755;-33.398;-70.572;2022-11-20T04:06:33;22.60;38.30
74336;DHT22;62755;-33.398;-70.572;2022-11-20T04:09:04;22.60;38.50
74336;DHT22;62755;-33.398;-70.572;2022-11-20T04:11:37;22.70;38.30
74336;DHT22;62755;-33.398;-70.572;2022-11-20T04:14:14;22.80;38.20
74336;DHT22;62755;-33.398;-70.572;2022-11-20T04:16:44;22.80;38.10
74336;DHT22;62755;-33.398;-70.572;2022-11-20T04:19:15;22.90;38.00
74336;DHT22;62755;-33.398;-70.572;2022-11-20T04:21:45;22.80;37.70
74336;DHT22;62755;-33.398;-70.572;2022-11-20T04:24:14;22.70;37.80
74336;DHT22;62755;-33.398;-70.572;2022-11-20T04:26:46;22.60;38.00
74336;DHT22;62755;-33.398;-70.572;2022-11-20T04:29:15;22.50;38.30
74336;DHT22;62755;-33.398;-70.572;2022-11-20T04:31:45;22.50;38.10
74336;DHT22;62755;-33.398;-70.572;2022-11-20T04:34:15;22.50;38.10
74336;DHT22;62755;-33.398;-70.572;2022-11-20T04:36:44;22.50;38.30
74336;DHT22;62755;-33.398;-70.572;2022-11-20T04:39:15;22.50;38.30
74336;DHT22;62755;-33.398;-70.572;2022-11-20T04:41:46;22.50;38.40
74336;DHT22;62755;-33.398;-70.572;2022-11-20T04:44:35;22.40;38.60
74336;DHT22;62755;-33.398;-70.572;2022-11-20T04:47:05;22.40;38.50
74336;DHT22;62755;-33.398;-70.572;2022-11-20T04:49:35;22.30;38.40
74336;DHT22;62755;-33.398;-70.572;2022-11-20T04:52:05;22.20;38.60
74336;DHT22;62755;-33.398;-70.572;2022-11-20T04:54:34;22.10;38.70
74336;DHT22;62755;-33.398;-70.572;2022-11-20T04:57:06;22.10;38.70
74336;DHT22;62755;-33.398;-70.572;2022-11-20T04:59:36;22.00;38.80
74336;DHT22;62755;-33.398;-70.572;2022-11-20T05:02:05;21.90;39.00
74336;DHT22;62755;-33.398;-70.572;2022-11-20T05:04:35;21.70;39.20
74336;DHT22;62755;-33.398;-70.572;2022-11-20T05:07:05;21.60;39.40
74336;DHT22;62755;-33.398;-70.572;2022-11-20T05:09:34;21.50;39.50
74336;DHT22;62755;-33.398;-70.572;2022-11-20T05:12:07;21.40;39.60
74336;DHT22;62755;-33.398;-70.572;2022-11-20T05:14:37;21.40;39.80
74336;DHT22;62755;-33.398;-70.572;2022-11-20T05:17:09;21.30;39.50
74336;DHT22;62755;-33.398;-70.572;2022-11-20T05:19:38;21.20;39.70
74336;DHT22;62755;-33.398;-70.572;2022-11-20T05:22:08;21.20;39.90
74336;DHT22;62755;-33.398;-70.572;2022-11-20T05:24:38;21.30;40.10
74336;DHT22;62755;-33.398;-70.572;2022-11-20T05:27:10;21.40;40.00
74336;DHT22;62755;-33.398;-70.572;2022-11-20T05:29:39;21.50;40.10
74336;DHT22;62755;-33.398;-70.572;2022-11-20T05:32:09;21.60;39.70
74336;DHT22;62755;-33.398;-70.572;2022-11-20T05:34:38;21.70;39.50
74336;DHT22;62755;-33.398;-70.572;2022-11-20T05:37:08;21.70;39.60
74336;DHT22;62755;-33.398;-70.572;2022-11-20T05:39:38;21.80;39.40
74336;DHT22;62755;-33.398;-70.572;2022-11-20T05:42:09;21.80;39.60
74336;DHT22;62755;-33.398;-70.572;2022-11-20T05:44:55;21.90;39.50
74336;DHT22;62755;-33.398;-70.572;2022-11-20T05:47:24;21.90;39.70
74336;DHT22;62755;-33.398;-70.572;2022-11-20T05:49:54;21.90;39.70
74336;DHT22;62755;-33.398;-70.572;2022-11-20T05:52:24;22.00;39.70
74336;DHT22;62755;-33.398;-70.572;2022-11-20T05:54:54;22.00;39.50
74336;DHT22;62755;-33.398;-70.572;2022-11-20T05:57:26;22.00;39.70
74336;DHT22;62755;-33.398;-70.572;2022-11-20T05:59:55;22.10;39.70
74336;DHT22;62755;-33.398;-70.572;2022-11-20T06:02:25;22.10;39.50
74336;DHT22;62755;-33.398;-70.572;2022-11-20T06:04:55;22.20;39.70
74336;DHT22;62755;-33.398;-70.572;2022-11-20T06:07:25;22.20;39.70
74336;DHT22;62755;-33.398;-70.572;2022-11-20T06:09:54;22.20;39.60
74336;DHT22;62755;-33.398;-70.572;2022-11-20T06:12:26;22.20;39.50
74336;DHT22;62755;-33.398;-70.572;2022-11-20T06:14:55;22.10;39.60
74336;DHT22;62755;-33.398;-70.572;2022-11-20T06:17:25;21.90;39.70
74336;DHT22;62755;-33.398;-70.572;2022-11-20T06:19:55;21.70;40.00
74336;DHT22;62755;-33.398;-70.572;2022-11-20T06:22:24;21.50;40.50
74336;DHT22;62755;-33.398;-70.572;2022-11-20T06:24:54;21.10;41.00
74336;DHT22;62755;-33.398;-70.572;2022-11-20T06:27:26;21.10;41.30
74336;DHT22;62755;-33.398;-70.572;2022-11-20T06:29:56;21.00;41.10
74336;DHT22;62755;-33.398;-70.572;2022-11-20T06:32:25;20.70;41.10
74336;DHT22;62755;-33.398;-70.572;2022-11-20T06:34:55;20.70;41.60
74336;DHT22;62755;-33.398;-70.572;2022-11-20T06:37:25;20.80;41.50
74336;DHT22;62755;-33.398;-70.572;2022-11-20T06:39:54;21.00;41.30
74336;DHT22;62755;-33.398;-70.572;2022-11-20T06:42:26;21.10;41.20
74336;DHT22;62755;-33.398;-70.572;2022-11-20T06:44:55;21.20;41.00
74336;DHT22;62755;-33.398;-70.572;2022-11-20T06:47:25;21.30;40.80
74336;DHT22;62755;-33.398;-70.572;2022-11-20T06:49:54;21.30;40.70
74336;DHT22;62755;-33.398;-70.572;2022-11-20T06:52:24;21.30;40.70
74336;DHT22;62755;-33.398;-70.572;2022-11-20T06:54:54;21.30;40.60
74336;DHT22;62755;-33.398;-70.572;2022-11-20T06:57:25;21.30;40.70
74336;DHT22;62755;-33.398;-70.572;2022-11-20T06:59:55;21.30;41.00
74336;DHT22;62755;-33.398;-70.572;2022-11-20T07:02:25;21.10;41.20
74336;DHT22;62755;-33.398;-70.572;2022-11-20T07:04:55;21.10;41.30
74336;DHT22;62755;-33.398;-70.572;2022-11-20T07:07:24;21.00;41.30
74336;DHT22;62755;-33.398;-70.572;2022-11-20T07:09:54;21.00;41.20
74336;DHT22;62755;-33.398;-70.572;2022-11-20T07:12:25;21.00;41.30
74336;DHT22;62755;-33.398;-70.572;2022-11-20T07:14:55;21.00;41.20
74336;DHT22;62755;-33.398;-70.572;2022-11-20T07:17:24;21.00;41.40
74336;DHT22;62755;-33.398;-70.572;2022-11-20T07:19:54;21.00;41.30
74336;DHT22;62755;-33.398;-70.572;2022-11-20T07:22:24;21.00;41.30
74336;DHT22;62755;-33.398;-70.572;2022-11-20T07:24:53;20.90;41.30
74336;DHT22;62755;-33.398;-70.572;2022-11-20T07:27:23;20.90;41.50
74336;DHT22;62755;-33.398;-70.572;2022-11-20T07:29:55;20.80;41.60
74336;DHT22;62755;-33.398;-70.572;2022-11-20T07:32:24;20.80;41.70
74336;DHT22;62755;-33.398;-70.572;2022-11-20T07:34:54;20.80;41.80
74336;DHT22;62755;-33.398;-70.572;2022-11-20T07:37:23;20.80;41.70
74336;DHT22;62755;-33.398;-70.572;2022-11-20T07:39:53;20.70;41.90
74336;DHT22;62755;-33.398;-70.572;2022-11-20T07:42:22;20.60;42.10
74336;DHT22;62755;-33.398;-70.572;2022-11-20T07:44:54;20.50;42.30
74336;DHT22;62755;-33.398;-70.572;2022-11-20T07:47:23;20.50;42.40
74336;DHT22;62755;-33.398;-70.572;2022-11-20T07:49:53;20.50;42.30
74336;DHT22;62755;-33.398;-70.572;2022-11-20T07:52:23;20.50;42.30
74336;DHT22;62755;-33.398;-70.572;2022-11-20T07:54:52;20.50;42.30
74336;DHT22;62755;-33.398;-70.572;2022-11-20T07:57:22;20.50;42.30
74336;DHT22;62755;-33.398;-70.572;2022-11-20T07:59:53;20.50;42.30
74336;DHT22;62755;-33.398;-70.572;2022-11-20T08:02:23;20.50;42.50
74336;DHT22;62755;-33.398;-70.572;2022-11-20T08:04:52;20.50;42.40
74336;DHT22;62755;-33.398;-70.572;2022-11-20T08:07:22;20.50;42.30
74336;DHT22;62755;-33.398;-70.572;2022-11-20T08:09:51;20.50;42.40
74336;DHT22;62755;-33.398;-70.572;2022-11-20T08:12:21;20.60;42.40
74336;DHT22;62755;-33.398;-70.572;2022-11-20T08:15:10;20.60;42.40
74336;DHT22;62755;-33.398;-70.572;2022-11-20T08:17:39;20.60;42.60
74336;DHT22;62755;-33.398;-70.572;2022-11-20T08:20:10;20.60;42.50
74336;DHT22;62755;-33.398;-70.572;2022-11-20T08:22:39;20.70;42.50
74336;DHT22;62755;-33.398;-70.572;2022-11-20T08:25:09;20.70;42.40
74336;DHT22;62755;-33.398;-70.572;2022-11-20T08:27:38;20.80;42.40
74336;DHT22;62755;-33.398;-70.572;2022-11-20T08:30:11;20.90;42.30
74336;DHT22;62755;-33.398;-70.572;2022-11-20T08:32:41;20.90;42.30
74336;DHT22;62755;-33.398;-70.572;2022-11-20T08:35:11;20.90;42.30
74336;DHT22;62755;-33.398;-70.572;2022-11-20T08:37:40;20.90;42.30
74336;DHT22;62755;-33.398;-70.572;2022-11-20T08:40:11;20.90;42.10
74336;DHT22;62755;-33.398;-70.572;2022-11-20T08:42:47;20.90;42.20
74336;DHT22;62755;-33.398;-70.572;2022-11-20T08:45:19;20.90;42.10
74336;DHT22;62755;-33.398;-70.572;2022-11-20T08:47:49;20.90;42.00
74336;DHT22;62755;-33.398;-70.572;2022-11-20T08:50:19;20.80;42.10
74336;DHT22;62755;-33.398;-70.572;2022-11-20T08:52:48;20.80;42.20
74336;DHT22;62755;-33.398;-70.572;2022-11-20T08:55:18;20.80;42.20
74336;DHT22;62755;-33.398;-70.572;2022-11-20T08:57:48;20.70;42.30
74336;DHT22;62755;-33.398;-70.572;2022-11-20T09:00:19;20.60;42.30
74336;DHT22;62755;-33.398;-70.572;2022-11-20T09:02:49;20.60;42.40
74336;DHT22;62755;-33.398;-70.572;2022-11-20T09:05:19;20.50;42.60
74336;DHT22;62755;-33.398;-70.572;2022-11-20T09:07:48;20.30;42.60
74336;DHT22;62755;-33.398;-70.572;2022-11-20T09:10:18;20.10;42.90
74336;DHT22;62755;-33.398;-70.572;2022-11-20T09:12:49;20.00;43.20
74336;DHT22;62755;-33.398;-70.572;2022-11-20T09:15:21;19.90;43.70
74336;DHT22;62755;-33.398;-70.572;2022-11-20T09:17:54;19.80;44.00
74336;DHT22;62755;-33.398;-70.572;2022-11-20T09:20:23;19.70;44.20
74336;DHT22;62755;-33.398;-70.572;2022-11-20T09:22:53;19.70;43.70
74336;DHT22;62755;-33.398;-70.572;2022-11-20T09:25:23;19.50;43.80
74336;DHT22;62755;-33.398;-70.572;2022-11-20T09:27:56;19.40;44.20
74336;DHT22;62755;-33.398;-70.572;2022-11-20T09:30:27;19.20;44.60
74336;DHT22;62755;-33.398;-70.572;2022-11-20T09:32:57;19.10;44.70
74336;DHT22;62755;-33.398;-70.572;2022-11-20T09:35:27;19.00;44.80
74336;DHT22;62755;-33.398;-70.572;2022-11-20T09:37:57;18.80;45.20
74336;DHT22;62755;-33.398;-70.572;2022-11-20T09:40:28;18.70;45.50
74336;DHT22;62755;-33.398;-70.572;2022-11-20T09:43:00;18.80;45.80
74336;DHT22;62755;-33.398;-70.572;2022-11-20T09:45:56;18.90;45.80
74336;DHT22;62755;-33.398;-70.572;2022-11-20T09:48:47;19.10;46.10
74336;DHT22;62755;-33.398;-70.572;2022-11-20T09:51:27;19.30;45.70
74336;DHT22;62755;-33.398;-70.572;2022-11-20T09:54:08;19.40;45.30
74336;DHT22;62755;-33.398;-70.572;2022-11-20T09:56:43;19.60;45.00
74336;DHT22;62755;-33.398;-70.572;2022-11-20T09:59:26;19.70;44.70
74336;DHT22;62755;-33.398;-70.572;2022-11-20T10:01:59;19.70;44.70
74336;DHT22;62755;-33.398;-70.572;2022-11-20T10:04:31;19.90;44.40
74336;DHT22;62755;-33.398;-70.572;2022-11-20T10:07:05;20.00;44.20
74336;DHT22;62755;-33.398;-70.572;2022-11-20T10:09:38;20.00;44.10
74336;DHT22;62755;-33.398;-70.572;2022-11-20T10:12:19;20.10;44.00
74336;DHT22;62755;-33.398;-70.572;2022-11-20T10:15:10;20.10;44.10
74336;DHT22;62755;-33.398;-70.572;2022-11-20T10:20:45;20.00;44.10
74336;DHT22;62755;-33.398;-70.572;2022-11-20T10:23:47;19.70;44.40
74336;DHT22;62755;-33.398;-70.572;2022-11-20T10:26:22;19.70;45.00
74336;DHT22;62755;-33.398;-70.572;2022-11-20T10:29:05;19.40;45.20
74336;DHT22;62755;-33.398;-70.572;2022-11-20T10:31:38;19.30;45.50
74336;DHT22;62755;-33.398;-70.572;2022-11-20T10:34:18;19.30;45.50
74336;DHT22;62755;-33.398;-70.572;2022-11-20T10:36:54;19.30;45.50
74336;DHT22;62755;-33.398;-70.572;2022-11-20T10:39:32;19.40;45.50
74336;DHT22;62755;-33.398;-70.572;2022-11-20T10:42:03;19.50;45.70
74336;DHT22;62755;-33.398;-70.572;2022-11-20T10:44:40;19.50;45.20
74336;DHT22;62755;-33.398;-70.572;2022-11-20T10:47:32;19.70;45.10
74336;DHT22;62755;-33.398;-70.572;2022-11-20T10:50:08;19.70;44.80
74336;DHT22;62755;-33.398;-70.572;2022-11-20T10:52:44;19.80;44.90
74336;DHT22;62755;-33.398;-70.572;2022-11-20T10:55:27;19.90;44.80
74336;DHT22;62755;-33.398;-70.572;2022-11-20T10:58:04;20.10;44.60
74336;DHT22;62755;-33.398;-70.572;2022-11-20T11:00:37;20.00;44.50
74336;DHT22;62755;-33.398;-70.572;2022-11-20T11:03:20;20.10;44.60
74336;DHT22;62755;-33.398;-70.572;2022-11-20T11:05:56;20.20;44.90
74336;DHT22;62755;-33.398;-70.572;2022-11-20T11:08:34;20.30;44.70
74336;DHT22;62755;-33.398;-70.572;2022-11-20T11:11:18;20.30;44.60
74336;DHT22;62755;-33.398;-70.572;2022-11-20T11:13:50;20.30;44.40
74336;DHT22;62755;-33.398;-70.572;2022-11-20T11:16:24;20.30;44.30
74336;DHT22;62755;-33.398;-70.572;2022-11-20T11:19:05;20.30;44.40
74336;DHT22;62755;-33.398;-70.572;2022-11-20T11:21:36;20.40;44.30
74336;DHT22;62755;-33.398;-70.572;2022-11-20T11:24:20;20.50;44.00
74336;DHT22;62755;-33.398;-70.572;2022-11-20T11:26:57;20.50;44.00
74336;DHT22;62755;-33.398;-70.572;2022-11-20T11:29:26;20.50;44.00
74336;DHT22;62755;-33.398;-70.572;2022-11-20T11:32:05;20.50;43.80
74336;DHT22;62755;-33.398;-70.572;2022-11-20T11:34:35;20.60;43.70
74336;DHT22;62755;-33.398;-70.572;2022-11-20T11:37:13;20.60;43.50
74336;DHT22;62755;-33.398;-70.572;2022-11-20T11:39:45;20.40;43.90
74336;DHT22;62755;-33.398;-70.572;2022-11-20T11:42:18;20.30;43.90
74336;DHT22;62755;-33.398;-70.572;2022-11-20T11:44:48;20.40;43.90
74336;DHT22;62755;-33.398;-70.572;2022-11-20T11:47:37;20.50;43.70
74336;DHT22;62755;-33.398;-70.572;2022-11-20T11:50:20;20.50;43.70
74336;DHT22;62755;-33.398;-70.572;2022-11-20T11:52:59;20.50;43.70
74336;DHT22;62755;-33.398;-70.572;2022-11-20T11:55:35;20.60;43.60
74336;DHT22;62755;-33.398;-70.572;2022-11-20T11:58:16;20.50;43.70
74336;DHT22;62755;-33.398;-70.572;2022-11-20T12:00:54;20.30;44.40
74336;DHT22;62755;-33.398;-70.572;2022-11-20T12:03:28;20.10;44.50
74336;DHT22;62755;-33.398;-70.572;2022-11-20T12:06:03;20.10;44.60
74336;DHT22;62755;-33.398;-70.572;2022-11-20T12:08:43;20.10;44.50
74336;DHT22;62755;-33.398;-70.572;2022-11-20T12:11:17;20.00;44.70
74336;DHT22;62755;-33.398;-70.572;2022-11-20T12:13:53;20.10;44.80
74336;DHT22;62755;-33.398;-70.572;2022-11-20T12:16:25;20.20;44.50
74336;DHT22;62755;-33.398;-70.572;2022-11-20T12:18:54;20.40;44.00
74336;DHT22;62755;-33.398;-70.572;2022-11-20T12:21:31;20.50;43.90
74336;DHT22;62755;-33.398;-70.572;2022-11-20T12:24:25;20.70;43.70
74336;DHT22;62755;-33.398;-70.572;2022-11-20T12:27:16;20.80;43.60
74336;DHT22;62755;-33.398;-70.572;2022-11-20T12:29:57;20.90;43.40
74336;DHT22;62755;-33.398;-70.572;2022-11-20T12:35:52;20.90;43.30
74336;DHT22;62755;-33.398;-70.572;2022-11-20T12:38:46;20.90;43.30
74336;DHT22;62755;-33.398;-70.572;2022-11-20T12:41:31;21.00;43.20
74336;DHT22;62755;-33.398;-70.572;2022-11-20T12:44:35;21.00;43.20
74336;DHT22;62755;-33.398;-70.572;2022-11-20T12:47:33;21.10;43.20
74336;DHT22;62755;-33.398;-70.572;2022-11-20T12:50:14;21.10;43.00
74336;DHT22;62755;-33.398;-70.572;2022-11-20T12:52:50;21.10;42.90
74336;DHT22;62755;-33.398;-70.572;2022-11-20T12:55:34;21.20;42.90
74336;DHT22;62755;-33.398;-70.572;2022-11-20T12:58:11;21.30;42.90
74336;DHT22;62755;-33.398;-70.572;2022-11-20T13:00:51;21.40;42.70
74336;DHT22;62755;-33.398;-70.572;2022-11-20T13:03:37;21.40;42.50
74336;DHT22;62755;-33.398;-70.572;2022-11-20T13:06:15;21.40;42.70
74336;DHT22;62755;-33.398;-70.572;2022-11-20T13:08:50;21.40;42.40
74336;DHT22;62755;-33.398;-70.572;2022-11-20T13:11:27;21.50;42.50
74336;DHT22;62755;-33.398;-70.572;2022-11-20T13:14:15;21.50;42.30
74336;DHT22;62755;-33.398;-70.572;2022-11-20T13:16:48;21.70;42.30
74336;DHT22;62755;-33.398;-70.572;2022-11-20T13:19:20;21.70;42.30
74336;DHT22;62755;-33.398;-70.572;2022-11-20T13:21:50;21.70;42.40
74336;DHT22;62755;-33.398;-70.572;2022-11-20T13:24:25;21.70;42.50
74336;DHT22;62755;-33.398;-70.572;2022-11-20T13:27:19;21.80;42.20
74336;DHT22;62755;-33.398;-70.572;2022-11-20T13:30:11;21.90;42.50
74336;DHT22;62755;-33.398;-70.572;2022-11-20T13:32:50;22.00;41.70
74336;DHT22;62755;-33.398;-70.572;2022-11-20T13:35:30;22.00;41.70
74336;DHT22;62755;-33.398;-70.572;2022-11-20T13:38:03;22.00;41.90
74336;DHT22;62755;-33.398;-70.572;2022-11-20T13:40:35;22.00;41.90
74336;DHT22;62755;-33.398;-70.572;2022-11-20T13:43:27;22.10;42.00
74336;DHT22;62755;-33.398;-70.572;2022-11-20T13:46:00;22.10;41.80
74336;DHT22;62755;-33.398;-70.572;2022-11-20T13:48:33;22.20;41.90
74336;DHT22;62755;-33.398;-70.572;2022-11-20T13:51:15;22.20;41.70
74336;DHT22;62755;-33.398;-70.572;2022-11-20T13:54:32;22.30;41.40
74336;DHT22;62755;-33.398;-70.572;2022-11-20T13:57:20;22.30;41.50
74336;DHT22;62755;-33.398;-70.572;2022-11-20T13:59:58;22.30;41.70
74336;DHT22;62755;-33.398;-70.572;2022-11-20T14:02:32;22.30;41.80
74336;DHT22;62755;-33.398;-70.572;2022-11-20T14:05:02;22.30;41.40
74336;DHT22;62755;-33.398;-70.572;2022-11-20T14:07:36;22.30;41.60
74336;DHT22;62755;-33.398;-70.572;2022-11-20T14:10:18;22.40;41.40
74336;DHT22;62755;-33.398;-70.572;2022-11-20T14:12:48;22.40;41.70
74336;DHT22;62755;-33.398;-70.572;2022-11-20T14:15:28;22.50;41.40
74336;DHT22;62755;-33.398;-70.572;2022-11-20T14:18:10;22.60;41.00
74336;DHT22;62755;-33.398;-70.572;2022-11-20T14:20:41;22.60;41.10
74336;DHT22;62755;-33.398;-70.572;2022-11-20T14:23:11;22.60;41.00
74336;DHT22;62755;-33.398;-70.572;2022-11-20T14:25:43;22.60;41.00
74336;DHT22;62755;-33.398;-70.572;2022-11-20T14:28:23;22.70;40.80
74336;DHT22;62755;-33.398;-70.572;2022-11-20T14:30:54;22.70;40.80
74336;DHT22;62755;-33.398;-70.572;2022-11-20T14:33:26;22.70;41.00
74336;DHT22;62755;-33.398;-70.572;2022-11-20T14:35:57;22.70;41.00
74336;DHT22;62755;-33.398;-70.572;2022-11-20T14:38:28;22.70;40.80
74336;DHT22;62755;-33.398;-70.572;2022-11-20T14:41:07;22.80;41.00
74336;DHT22;62755;-33.398;-70.572;2022-11-20T14:43:37;22.90;40.80
74336;DHT22;62755;-33.398;-70.572;2022-11-20T14:46:08;23.00;40.50
74336;DHT22;62755;-33.398;-70.572;2022-11-20T14:48:44;23.00;40.50
74336;DHT22;62755;-33.398;-70.572;2022-11-20T14:51:28;23.00;40.50
74336;DHT22;62755;-33.398;-70.572;2022-11-20T14:54:12;23.00;40.30
74336;DHT22;62755;-33.398;-70.572;2022-11-20T14:56:54;23.00;40.20
74336;DHT22;62755;-33.398;-70.572;2022-11-20T14:59:25;23.00;40.20
74336;DHT22;62755;-33.398;-70.572;2022-11-20T15:01:58;23.00;40.40
74336;DHT22;62755;-33.398;-70.572;2022-11-20T15:04:30;23.10;40.00
74336;DHT22;62755;-33.398;-70.572;2022-11-20T15:07:00;23.10;40.10
74336;DHT22;62755;-33.398;-70.572;2022-11-20T15:09:30;23.10;40.10
74336;DHT22;62755;-33.398;-70.572;2022-11-20T15:12:02;23.20;40.10
74336;DHT22;62755;-33.398;-70.572;2022-11-20T15:14:32;23.30;39.60
74336;DHT22;62755;-33.398;-70.572;2022-11-20T15:17:02;23.20;39.70
74336;DHT22;62755;-33.398;-70.572;2022-11-20T15:19:33;23.30;40.10
74336;DHT22;62755;-33.398;-70.572;2022-11-20T15:22:04;23.30;40.20
74336;DHT22;62755;-33.398;-70.572;2022-11-20T15:24:36;23.40;40.00
74336;DHT22;62755;-33.398;-70.572;2022-11-20T15:27:07;23.40;40.00
74336;DHT22;62755;-33.398;-70.572;2022-11-20T15:29:36;23.50;40.20
74336;DHT22;62755;-33.398;-70.572;2022-11-20T15:32:07;23.60;40.20